Time;durP1;ratioP1;P1;durP2;ratioP2;P2;SDS_P1;SDS_P2;PMS_P1;PMS_P2;Temp;Humidity;BMP_temperature;BMP_pressure;BME280_temperature;BME280_humidity;BME280_pressure;Samples;Min_cycle;Max_cycle;Signal;HPM_P1;HPM_P2
2023/08/19 00:01:03;;;;;;;3.33;1.13;;;32.30;99.90;;;;;;4992712;28;20046;-52
2023/08/19 00:03:30;;;;;;;9.55;1.48;;;32.30;99.90;;;;;;4992749;28;20041;-52
2023/08/19 00:05:55;;;;;;;7.53;1.48;;;32.30;99.90;;;;;;4992844;28;20140;-52
2023/08/19 00:08:21;;;;;;;5.20;1.40;;;32.30;99.90;;;;;;4991559;28;20022;-52
2023/08/19 00:10:47;;;;;;;5.43;2.05;;;32.30;99.90;;;;;;4992884;28;20025;-52
2023/08/19 00:13:13;;;;;;;11.90;1.40;;;32.30;99.90;;;;;;4992535;28;20026;-53
2023/08/19 00:15:39;;;;;;;3.50;1.45;;;32.30;99.90;;;;;;4992502;28;20027;-53
2023/08/19 00:18:04;;;;;;;3.22;1.17;;;32.30;99.90;;;;;;4992615;28;20031;-53
2023/08/19 00:20:32;;;;;;;9.10;1.50;;;32.30;99.90;;;;;;4992398;28;20054;-52
2023/08/19 00:22:59;;;;;;;3.85;1.00;;;32.30;99.90;;;;;;4992239;28;20033;-53
2023/08/19 00:25:25;;;;;;;6.25;1.05;;;32.30;99.90;;;;;;4990873;28;20123;-53
2023/08/19 00:27:54;;;;;;;14.15;2.10;;;32.20;99.90;;;;;;4992022;28;20038;-52
2023/08/19 00:30:21;;;;;;;8.18;1.48;;;32.20;99.90;;;;;;4992552;28;20027;-53
2023/08/19 00:32:47;;;;;;;5.18;1.73;;;32.20;99.90;;;;;;4992748;28;20033;-53
2023/08/19 00:35:14;;;;;;;10.30;1.53;;;32.20;99.90;;;;;;4992426;28;20022;-52
2023/08/19 00:37:39;;;;;;;3.67;1.58;;;32.20;99.90;;;;;;4992221;28;20019;-52
2023/08/19 00:40:06;;;;;;;4.97;1.35;;;32.20;99.90;;;;;;4992090;28;20105;-53
2023/08/19 00:42:32;;;;;;;2.87;1.17;;;32.20;99.90;;;;;;4992206;28;20051;-52
2023/08/19 00:44:58;;;;;;;6.85;1.50;;;32.20;99.90;;;;;;4992145;28;20264;-52
2023/08/19 00:47:24;;;;;;;9.85;1.25;;;32.20;99.90;;;;;;4992274;28;20336;-52
2023/08/19 00:49:51;;;;;;;7.68;1.88;;;32.20;99.90;;;;;;4992351;28;20037;-52
2023/08/19 00:52:18;;;;;;;6.68;1.55;;;32.20;99.90;;;;;;4992335;28;20030;-53
2023/08/19 00:54:44;;;;;;;5.03;1.35;;;32.20;99.90;;;;;;4992187;28;20538;-53
2023/08/19 00:57:12;;;;;;;5.63;1.30;;;32.20;99.90;;;;;;4992107;28;20022;-52
2023/08/19 00:59:37;;;;;;;;;;;32.20;99.90;;;;;;4992506;28;20029;-52
2023/08/19 01:02:03;;;;;;;9.95;1.30;;;32.10;99.90;;;;;;4989580;23;19922;-59
2023/08/19 01:04:29;;;;;;;6.68;1.55;;;32.20;99.90;;;;;;4972741;28;20030;-60
2023/08/19 01:07:08;;;;;;;5.57;1.70;;;32.10;99.90;;;;;;4972693;28;20111;-60
2023/08/19 01:09:37;;;;;;;5.68;2.35;;;32.10;99.90;;;;;;4972963;28;20417;-58
2023/08/19 01:12:18;;;;;;;4.93;1.50;;;32.10;99.90;;;;;;4972769;28;20023;-59
2023/08/19 01:15:05;;;;;;;5.50;1.85;;;32.00;99.90;;;;;;4971411;28;20400;-58
2023/08/19 01:17:31;;;;;;;;;;;32.00;99.90;;;;;;4973131;28;20110;-59
2023/08/19 01:19:58;;;;;;;6.82;1.98;;;31.90;99.90;;;;;;4972588;28;20315;-59
2023/08/19 01:22:50;;;;;;;6.68;1.25;;;31.90;99.90;;;;;;4972636;28;20035;-58
2023/08/19 01:25:18;;;;;;;8.43;2.42;;;31.90;99.90;;;;;;4968483;28;20129;-59
2023/08/19 01:27:44;;;;;;;5.80;1.40;;;31.80;99.90;;;;;;4972513;28;20023;-59
2023/08/19 01:30:10;;;;;;;8.40;1.48;;;31.80;99.90;;;;;;4972580;28;20019;-58
2023/08/19 01:32:38;;;;;;;6.57;1.73;;;31.80;99.90;;;;;;4972499;28;20031;-58
2023/08/19 01:35:05;;;;;;;6.72;4.72;;;31.80;99.90;;;;;;4972451;28;20131;-59
2023/08/19 01:37:53;;;;;;;5.65;1.70;;;31.80;99.90;;;;;;4973469;28;20131;-59
2023/08/19 01:40:22;;;;;;;4.30;1.70;;;31.80;99.90;;;;;;4969740;28;20058;-59
2023/08/19 01:42:49;;;;;;;6.60;1.60;;;31.80;99.90;;;;;;4975818;28;20126;-59
2023/08/19 01:45:16;;;;;;;4.63;1.35;;;31.80;99.90;;;;;;4976012;28;20114;-58
2023/08/19 01:47:44;;;;;;;9.00;1.55;;;31.80;99.90;;;;;;4975945;28;20023;-59
2023/08/19 01:50:10;;;;;;;10.95;1.60;;;31.80;99.90;;;;;;4975805;28;20030;-58
2023/08/19 01:52:37;;;;;;;6.80;1.55;;;31.80;99.90;;;;;;4975785;28;20035;-57
2023/08/19 01:55:03;;;;;;;8.10;2.55;;;31.80;99.90;;;;;;4975728;28;20018;-57
2023/08/19 01:57:29;;;;;;;6.63;1.30;;;31.80;99.90;;;;;;4975682;28;20027;-57
2023/08/19 01:59:55;;;;;;;3.58;1.45;;;31.80;99.90;;;;;;4976071;28;20023;-57
2023/08/19 02:02:22;;;;;;;11.23;2.47;;;31.80;99.90;;;;;;5004011;23;20061;-55
2023/08/19 02:04:48;;;;;;;9.57;1.75;;;31.80;99.90;;;;;;4995378;28;20048;-55
2023/08/19 02:07:13;;;;;;;5.68;1.58;;;31.80;99.90;;;;;;4995113;28;20534;-54
2023/08/19 02:09:40;;;;;;;6.32;1.63;;;31.80;99.90;;;;;;4995137;28;20022;-54
2023/08/19 02:12:07;;;;;;;6.50;1.92;;;31.80;99.90;;;;;;4995228;28;20019;-54
2023/08/19 02:14:34;;;;;;;5.40;1.67;;;31.80;99.90;;;;;;4993786;28;20023;-57
2023/08/19 02:17:00;;;;;;;13.23;1.77;;;31.80;99.90;;;;;;4995005;28;20046;-54
2023/08/19 02:19:26;;;;;;;8.02;1.92;;;31.80;99.90;;;;;;4995356;28;20039;-54
2023/08/19 02:21:51;;;;;;;4.82;1.77;;;31.80;99.90;;;;;;4995072;28;20030;-54
2023/08/19 02:24:18;;;;;;;6.97;1.52;;;31.70;99.90;;;;;;4994882;28;20034;-53
2023/08/19 02:26:43;;;;;;;9.05;1.67;;;31.70;99.90;;;;;;4994900;28;20022;-53
2023/08/19 02:29:09;;;;;;;5.63;1.60;;;31.70;99.90;;;;;;4994937;28;20037;-54
2023/08/19 02:31:38;;;;;;;6.80;1.70;;;31.70;99.90;;;;;;4994834;28;20116;-56
2023/08/19 02:34:04;;;;;;;5.95;1.73;;;31.70;99.90;;;;;;4994723;28;20387;-56
2023/08/19 02:36:31;;;;;;;4.57;1.30;;;31.70;99.90;;;;;;4994664;28;20026;-56
2023/08/19 02:38:57;;;;;;;4.60;1.50;;;31.70;99.90;;;;;;4994774;28;20143;-56
2023/08/19 02:41:24;;;;;;;4.35;1.27;;;31.70;99.90;;;;;;4994780;28;20054;-56
2023/08/19 02:43:50;;;;;;;2.78;1.52;;;31.70;99.90;;;;;;4994642;28;20513;-56
2023/08/19 02:46:16;;;;;;;8.52;1.63;;;31.70;99.90;;;;;;4994391;28;20042;-56
2023/08/19 02:48:42;;;;;;;9.23;1.65;;;31.70;99.90;;;;;;4992645;28;20026;-56
2023/08/19 02:51:08;;;;;;;2.70;1.30;;;31.70;99.90;;;;;;4994172;28;20092;-56
2023/08/19 02:53:33;;;;;;;7.97;1.27;;;31.70;99.90;;;;;;4993094;28;20041;-56
2023/08/19 02:55:59;;;;;;;6.93;1.85;;;31.70;99.90;;;;;;4994316;28;20049;-55
2023/08/19 02:58:25;;;;;;;5.78;1.67;;;31.70;99.90;;;;;;4994553;28;20050;-56
2023/08/19 03:00:51;;;;;;;7.93;1.60;;;31.70;99.90;;;;;;4993567;28;20039;-55
2023/08/19 03:03:17;;;;;;;3.17;2.10;;;31.70;99.90;;;;;;4994065;28;20034;-54
2023/08/19 03:05:43;;;;;;;3.58;1.45;;;31.70;99.90;;;;;;4994128;28;20096;-55
2023/08/19 03:08:10;;;;;;;4.90;1.52;;;31.70;99.90;;;;;;4994125;28;20026;-54
2023/08/19 03:10:37;;;;;;;4.75;1.50;;;31.70;99.90;;;;;;4994071;28;20030;-54
2023/08/19 03:13:06;;;;;;;10.63;1.88;;;31.70;99.90;;;;;;4994112;28;20085;-55
2023/08/19 03:15:33;;;;;;;5.65;2.00;;;31.70;99.90;;;;;;4994077;28;20101;-56
2023/08/19 03:17:59;;;;;;;5.88;1.35;;;31.70;99.90;;;;;;4994104;28;20545;-54
2023/08/19 03:20:25;;;;;;;5.40;1.50;;;31.70;99.90;;;;;;4994230;28;20058;-54
2023/08/19 03:22:51;;;;;;;4.90;1.77;;;31.70;99.90;;;;;;4993759;28;20088;-54
2023/08/19 03:25:17;;;;;;;7.82;1.60;;;31.60;99.90;;;;;;4993641;28;20471;-52
2023/08/19 03:27:43;;;;;;;13.40;1.80;;;31.70;99.90;;;;;;4993786;28;20030;-54
2023/08/19 03:30:09;;;;;;;9.93;1.50;;;31.70;99.90;;;;;;4993688;28;20031;-52
2023/08/19 03:32:35;;;;;;;3.00;1.55;;;31.70;99.90;;;;;;4993537;28;20029;-52
2023/08/19 03:35:00;;;;;;;6.72;1.40;;;31.70;99.90;;;;;;4993687;28;20026;-52
2023/08/19 03:37:26;;;;;;;3.35;1.35;;;31.70;99.90;;;;;;4993731;28;20033;-52
2023/08/19 03:39:52;;;;;;;7.18;1.92;;;31.70;99.90;;;;;;4993351;28;20026;-52
2023/08/19 03:42:18;;;;;;;2.42;1.40;;;31.70;99.90;;;;;;4993428;28;20038;-52
2023/08/19 03:44:44;;;;;;;9.93;2.15;;;31.60;99.90;;;;;;4993264;28;20454;-52
2023/08/19 03:47:13;;;;;;;4.47;1.80;;;31.60;99.90;;;;;;4993338;28;20022;-51
2023/08/19 03:49:40;;;;;;;4.10;1.65;;;31.60;99.90;;;;;;4992407;28;20026;-55
2023/08/19 03:52:07;;;;;;;4.65;1.90;;;31.60;99.90;;;;;;4992520;28;20434;-52
2023/08/19 03:54:33;;;;;;;6.05;1.70;;;31.60;99.90;;;;;;4992501;28;20364;-54
2023/08/19 03:56:59;;;;;;;7.47;1.65;;;31.60;99.90;;;;;;4992963;28;20113;-52
2023/08/19 03:59:25;;;;;;;5.85;1.55;;;31.60;99.90;;;;;;4992762;28;20026;-53
2023/08/19 04:01:50;;;;;;;9.68;1.70;;;31.60;99.90;;;;;;4991637;28;20166;-53
2023/08/19 04:04:16;;;;;;;4.22;1.98;;;31.60;99.90;;;;;;4993067;28;20493;-52
2023/08/19 04:06:42;;;;;;;6.72;1.63;;;31.60;99.90;;;;;;4992949;28;20030;-53
2023/08/19 04:09:08;;;;;;;11.38;1.83;;;31.60;99.90;;;;;;4992864;28;20038;-53
2023/08/19 04:11:34;;;;;;;4.43;1.40;;;31.60;99.90;;;;;;4992923;28;20061;-52
2023/08/19 04:14:00;;;;;;;4.78;1.95;;;31.50;99.90;;;;;;4993122;28;20487;-54
2023/08/19 04:16:26;;;;;;;3.58;1.33;;;31.50;99.90;;;;;;4992797;28;20053;-52
2023/08/19 04:18:52;;;;;;;4.28;1.65;;;31.50;99.90;;;;;;4992763;28;20022;-52
2023/08/19 04:21:18;;;;;;;4.68;1.77;;;31.60;99.90;;;;;;4992767;28;20105;-52
2023/08/19 04:23:43;;;;;;;3.38;1.80;;;31.50;99.90;;;;;;4991530;28;20372;-53
2023/08/19 04:26:09;;;;;;;3.38;1.50;;;31.60;99.90;;;;;;4991552;28;20149;-52
2023/08/19 04:28:35;;;;;;;3.70;1.80;;;31.60;99.90;;;;;;4992343;28;20483;-51
2023/08/19 04:31:07;;;;;;;4.70;1.75;;;31.50;99.90;;;;;;4992900;28;20390;-53
2023/08/19 04:33:34;;;;;;;6.57;1.52;;;31.50;99.90;;;;;;4992770;28;20022;-51
2023/08/19 04:36:00;;;;;;;6.10;1.83;;;31.50;99.90;;;;;;4992566;28;20383;-51
2023/08/19 04:38:26;;;;;;;3.97;1.38;;;31.50;99.90;;;;;;4992009;28;21361;-52
2023/08/19 04:40:52;;;;;;;4.47;1.58;;;31.50;99.90;;;;;;4991457;28;20030;-50
2023/08/19 04:43:21;;;;;;;6.50;1.90;;;31.50;99.90;;;;;;4991444;28;20042;-50
2023/08/19 04:45:47;;;;;;;7.65;3.35;;;31.40;99.90;;;;;;4991945;28;20018;-50
2023/08/19 04:48:14;;;;;;;6.28;1.50;;;31.40;99.90;;;;;;4991964;28;20029;-49
2023/08/19 04:50:39;;;;;;;2.17;1.25;;;31.50;99.90;;;;;;4991904;28;20029;-52
2023/08/19 04:53:07;;;;;;;3.90;1.60;;;31.50;99.90;;;;;;4991892;28;20484;-51
2023/08/19 04:55:32;;;;;;;5.65;1.90;;;31.40;99.90;;;;;;4992140;28;20030;-51
2023/08/19 04:57:58;;;;;;;5.78;1.45;;;31.40;99.90;;;;;;4991109;28;20038;-51
2023/08/19 05:00:24;;;;;;;8.40;2.45;;;31.40;99.90;;;;;;4991172;28;20026;-49
2023/08/19 05:02:50;;;;;;;3.40;1.50;;;31.40;99.90;;;;;;4990970;28;20038;-52
2023/08/19 05:05:16;;;;;;;4.85;1.48;;;31.40;99.90;;;;;;4992290;28;20027;-51
2023/08/19 05:07:42;;;;;;;6.13;1.70;;;31.40;99.90;;;;;;4974852;28;20108;-52
2023/08/19 05:10:08;;;;;;;3.25;1.65;;;31.40;99.90;;;;;;4990140;28;20102;-53
2023/08/19 05:12:35;;;;;;;4.15;1.50;;;31.40;99.90;;;;;;4993666;28;20027;-55
2023/08/19 05:15:01;;;;;;;5.40;2.22;;;31.40;99.90;;;;;;4996381;28;20112;-55
2023/08/19 05:17:26;;;;;;;7.50;2.17;;;31.40;99.90;;;;;;4996174;28;20545;-54
2023/08/19 05:19:54;;;;;;;7.13;2.08;;;31.40;99.90;;;;;;4996165;28;20026;-57
2023/08/19 05:22:22;;;;;;;5.93;2.33;;;31.40;99.90;;;;;;4995979;28;20038;-55
2023/08/19 05:24:49;;;;;;;6.22;2.10;;;31.40;99.90;;;;;;4996054;28;20383;-54
2023/08/19 05:27:15;;;;;;;;;;;31.40;99.90;;;;;;4995040;28;20042;-54
2023/08/19 05:29:41;;;;;;;5.95;2.28;;;31.40;99.90;;;;;;4996017;28;20313;-54
2023/08/19 05:32:06;;;;;;;5.97;2.28;;;31.40;99.90;;;;;;4994593;28;20033;-55
2023/08/19 05:34:33;;;;;;;4.68;2.08;;;31.40;99.90;;;;;;4996144;28;20069;-55
2023/08/19 05:36:59;;;;;;;5.82;1.98;;;31.40;99.90;;;;;;4995815;28;20057;-55
2023/08/19 05:39:25;;;;;;;8.13;1.83;;;31.40;99.90;;;;;;4995744;28;20509;-54
2023/08/19 05:41:51;;;;;;;5.00;1.80;;;31.40;99.90;;;;;;4995640;28;20042;-55
2023/08/19 05:44:17;;;;;;;3.60;1.42;;;31.40;99.90;;;;;;4995644;28;20054;-54
2023/08/19 05:46:42;;;;;;;4.20;1.55;;;31.30;99.90;;;;;;4995531;28;20043;-55
2023/08/19 05:49:08;;;;;;;4.15;1.80;;;31.30;99.90;;;;;;4995472;28;20034;-55
2023/08/19 05:51:34;;;;;;;3.65;2.00;;;31.30;99.90;;;;;;4995788;28;20034;-55
2023/08/19 05:54:02;;;;;;;6.78;1.63;;;31.30;99.90;;;;;;4995598;28;20105;-56
2023/08/19 05:56:28;;;;;;;4.65;1.65;;;31.30;99.90;;;;;;4995347;28;20023;-55
2023/08/19 05:58:54;;;;;;;9.38;2.13;;;31.30;99.90;;;;;;4995358;28;20026;-54
2023/08/19 06:01:20;;;;;;;5.23;1.73;;;31.40;99.90;;;;;;4995076;28;20050;-55
2023/08/19 06:03:46;;;;;;;6.00;1.88;;;31.30;99.90;;;;;;4995299;28;20334;-54
2023/08/19 06:06:12;;;;;;;6.18;2.38;;;31.30;99.90;;;;;;4995189;28;20037;-54
2023/08/19 06:08:37;;;;;;;5.65;1.90;;;31.40;99.90;;;;;;4995383;28;20491;-55
2023/08/19 06:11:06;;;;;;;3.95;1.88;;;31.30;99.90;;;;;;4995222;28;20022;-54
2023/08/19 06:13:33;;;;;;;10.10;1.83;;;31.40;99.90;;;;;;4995126;28;20022;-55
2023/08/19 06:15:59;;;;;;;3.63;1.48;;;31.40;99.90;;;;;;4995207;28;20080;-55
2023/08/19 06:18:25;;;;;;;3.88;1.65;;;31.30;99.90;;;;;;4995033;28;20030;-55
2023/08/19 06:20:52;;;;;;;3.80;1.55;;;31.30;99.90;;;;;;4994830;28;20376;-55
2023/08/19 06:23:18;;;;;;;7.20;1.55;;;31.30;99.90;;;;;;4993326;28;20395;-55
2023/08/19 06:25:48;;;;;;;3.67;1.90;;;31.30;99.90;;;;;;4992879;28;20069;-56
2023/08/19 06:28:14;;;;;;;6.82;2.05;;;31.30;99.90;;;;;;4994855;28;20029;-56
2023/08/19 06:30:40;;;;;;;3.85;1.80;;;31.30;99.90;;;;;;4994804;28;20164;-56
2023/08/19 06:33:07;;;;;;;6.30;2.08;;;31.30;99.90;;;;;;4993766;28;20034;-56
2023/08/19 06:35:33;;;;;;;3.40;1.75;;;31.20;99.90;;;;;;4994732;28;20462;-56
2023/08/19 06:38:04;;;;;;;3.40;2.00;;;31.30;99.90;;;;;;4994662;28;20038;-56
2023/08/19 06:40:34;;;;;;;6.65;2.10;;;31.30;99.90;;;;;;4993483;28;20057;-55
2023/08/19 06:43:00;;;;;;;4.20;1.80;;;31.30;99.90;;;;;;4994610;28;20034;-55
2023/08/19 06:45:27;;;;;;;4.60;1.80;;;31.30;99.90;;;;;;4994627;28;20019;-55
2023/08/19 06:47:54;;;;;;;5.50;1.60;;;31.30;99.90;;;;;;4994541;28;20049;-55
2023/08/19 06:50:20;;;;;;;4.77;2.23;;;31.30;99.90;;;;;;4994526;28;20446;-56
2023/08/19 06:52:46;;;;;;;6.45;2.17;;;31.30;99.90;;;;;;4994241;28;20475;-55
2023/08/19 06:55:12;;;;;;;3.78;1.77;;;31.30;99.90;;;;;;4994496;28;20475;-56
2023/08/19 06:58:01;;;;;;;5.67;2.07;;;31.40;99.90;;;;;;4994651;28;20041;-55
2023/08/19 07:00:27;;;;;;;7.13;1.80;;;31.40;99.90;;;;;;4994025;28;20018;-55
2023/08/19 07:02:54;;;;;;;4.18;2.05;;;31.40;99.90;;;;;;4994249;28;20042;-56
2023/08/19 07:05:21;;;;;;;3.33;2.05;;;31.40;99.90;;;;;;4994223;28;20027;-55
2023/08/19 07:07:51;;;;;;;6.45;1.83;;;31.40;99.90;;;;;;4992859;28;20085;-55
2023/08/19 07:10:18;;;;;;;3.92;2.00;;;31.50;99.90;;;;;;4992887;28;20030;-55
2023/08/19 07:12:45;;;;;;;4.30;2.00;;;31.50;99.90;;;;;;4994060;28;20486;-55
2023/08/19 07:15:12;;;;;;;4.47;2.23;;;31.50;99.90;;;;;;4994262;28;20120;-54
2023/08/19 07:17:47;;;;;;;;;;;31.60;99.90;;;;;;4994538;28;20037;-55
2023/08/19 07:20:20;;;;;;;4.78;2.22;;;31.50;99.90;;;;;;4992776;28;19930;-57
2023/08/19 07:22:52;;;;;;;3.75;1.75;;;31.60;99.90;;;;;;4993783;28;20109;-56
2023/08/19 07:25:19;;;;;;;6.75;2.08;;;31.50;99.90;;;;;;4992640;28;20033;-55
2023/08/19 07:27:45;;;;;;;;;;;31.60;99.90;;;;;;4994257;28;20386;-56
2023/08/19 07:30:12;;;;;;;9.40;2.28;;;31.60;99.90;;;;;;4993851;28;19906;-56
2023/08/19 07:32:39;;;;;;;3.67;1.88;;;31.60;99.90;;;;;;4992542;28;20026;-55
2023/08/19 07:35:06;;;;;;;4.55;2.05;;;31.60;99.90;;;;;;4993341;28;20030;-55
2023/08/19 07:37:32;;;;;;;3.47;1.70;;;31.60;99.90;;;;;;4993471;28;20122;-55
2023/08/19 07:39:59;;;;;;;6.13;2.15;;;31.60;99.90;;;;;;4993583;28;20058;-55
2023/08/19 07:42:25;;;;;;;6.90;1.85;;;31.60;99.90;;;;;;4993481;28;20046;-56
2023/08/19 07:44:51;;;;;;;9.48;2.25;;;31.60;99.90;;;;;;4993501;28;20026;-58
2023/08/19 07:47:17;;;;;;;12.18;2.63;;;31.60;99.90;;;;;;4993516;28;20031;-57
2023/08/19 07:49:43;;;;;;;3.65;1.98;;;31.60;99.90;;;;;;4993670;28;20026;-56
2023/08/19 07:52:08;;;;;;;4.25;2.55;;;31.70;99.90;;;;;;4993538;28;20030;-56
2023/08/19 07:54:34;;;;;;;4.80;2.20;;;31.70;99.90;;;;;;4993329;28;20386;-56
2023/08/19 07:57:00;;;;;;;10.13;2.58;;;31.70;99.90;;;;;;4993193;28;20035;-56
2023/08/19 07:59:26;;;;;;;5.40;2.83;;;31.70;99.90;;;;;;4993163;28;20105;-56
2023/08/19 08:01:52;;;;;;;9.32;4.47;;;31.70;99.90;;;;;;4992767;28;20053;-55
2023/08/19 08:04:19;;;;;;;4.33;2.30;;;31.70;99.90;;;;;;4993201;28;20054;-56
2023/08/19 08:06:51;;;;;;;6.70;2.65;;;31.60;99.90;;;;;;4993157;28;20097;-57
2023/08/19 08:09:17;;;;;;;11.27;2.47;;;31.60;99.90;;;;;;4991759;28;20080;-56
2023/08/19 08:11:45;;;;;;;5.50;2.47;;;31.60;99.90;;;;;;4993204;28;20033;-57
2023/08/19 08:14:11;;;;;;;6.00;2.45;;;31.60;99.90;;;;;;4993191;28;20122;-56
2023/08/19 08:16:37;;;;;;;3.75;2.05;;;31.60;99.90;;;;;;4992983;28;20480;-55
2023/08/19 08:19:03;;;;;;;10.10;2.60;;;31.60;99.90;;;;;;4991740;28;20024;-56
2023/08/19 08:21:28;;;;;;;6.72;3.38;;;31.60;99.90;;;;;;4991739;28;20038;-56
2023/08/19 08:23:54;;;;;;;8.32;2.85;;;31.60;99.90;;;;;;4992995;28;20117;-57
2023/08/19 08:26:21;;;;;;;8.68;3.47;;;31.60;99.90;;;;;;4992778;28;20054;-58
2023/08/19 08:28:46;;;;;;;6.50;2.50;;;31.50;99.90;;;;;;4992906;28;20049;-57
2023/08/19 08:31:12;;;;;;;5.93;2.70;;;31.50;99.90;;;;;;4992983;28;20023;-56
2023/08/19 08:33:38;;;;;;;4.50;2.13;;;31.50;99.90;;;;;;4991333;28;20038;-56
2023/08/19 08:36:04;;;;;;;5.13;1.42;;;31.40;99.90;;;;;;4991366;28;20014;-57
2023/08/19 08:38:30;;;;;;;7.53;1.67;;;31.40;99.90;;;;;;4992721;28;20305;-55
2023/08/19 08:41:00;;;;;;;8.52;1.98;;;31.40;99.90;;;;;;4992615;28;20034;-55
2023/08/19 08:43:26;;;;;;;5.75;2.20;;;31.40;99.90;;;;;;4992399;28;20036;-55
2023/08/19 08:45:53;;;;;;;5.78;2.15;;;31.30;99.90;;;;;;4992462;28;20023;-54
2023/08/19 08:48:19;;;;;;;3.75;1.80;;;31.30;99.90;;;;;;4991928;28;20558;-55
2023/08/19 08:50:45;;;;;;;9.27;3.75;;;31.30;99.90;;;;;;4992619;28;20057;-55
2023/08/19 08:53:14;;;;;;;5.47;2.05;;;31.30;99.90;;;;;;4991285;28;20479;-55
2023/08/19 08:55:40;;;;;;;6.28;1.95;;;31.40;99.90;;;;;;4992215;28;20390;-56
2023/08/19 08:58:05;;;;;;;5.85;2.72;;;31.40;99.90;;;;;;4992301;28;20027;-56
2023/08/19 09:00:32;;;;;;;7.97;2.47;;;31.40;99.90;;;;;;4991972;28;20085;-57
2023/08/19 09:02:59;;;;;;;7.83;3.27;;;31.50;99.90;;;;;;4992166;28;20039;-58
2023/08/19 09:05:26;;;;;;;7.03;3.00;;;31.40;99.90;;;;;;4992243;28;20034;-55
2023/08/19 09:07:54;;;;;;;6.35;2.55;;;31.50;99.90;;;;;;4992199;28;20034;-56
2023/08/19 09:10:27;;;;;;;6.65;2.40;;;31.50;99.90;;;;;;4992137;28;20407;-55
2023/08/19 09:13:04;;;;;;;11.95;2.50;;;31.50;99.90;;;;;;4992324;28;20081;-55
2023/08/19 09:15:30;;;;;;;;;;;31.50;99.90;;;;;;4992518;28;20089;-56
2023/08/19 09:17:58;;;;;;;8.70;1.97;;;31.40;99.90;;;;;;4992301;28;20285;-58
2023/08/19 09:20:25;;;;;;;5.22;1.77;;;31.50;99.90;;;;;;4991886;28;20023;-56
2023/08/19 09:22:51;;;;;;;;;;;31.40;99.90;;;;;;4992528;28;20035;-57
2023/08/19 09:25:17;;;;;;;4.18;1.60;;;31.40;99.90;;;;;;4992517;28;19912;-55
2023/08/19 09:27:46;;;;;;;6.57;2.80;;;31.40;99.90;;;;;;4990936;28;20030;-57
2023/08/19 09:30:17;;;;;;;5.15;1.85;;;31.50;99.90;;;;;;4992098;28;20050;-55
2023/08/19 09:32:45;;;;;;;5.32;2.13;;;31.40;99.90;;;;;;4992212;28;20050;-57
2023/08/19 09:35:12;;;;;;;;;;;31.40;99.90;;;;;;4991234;28;20022;-55
2023/08/19 09:37:38;;;;;;;;;;;31.50;99.90;;;;;;4992496;28;19910;-55
2023/08/19 09:40:11;;;;;;;6.60;2.17;;;31.50;99.90;;;;;;4992060;28;20270;-55
2023/08/19 09:42:40;;;;;;;5.97;3.08;;;31.50;99.90;;;;;;4992244;28;20288;-56
2023/08/19 09:45:07;;;;;;;8.23;2.22;;;31.60;99.90;;;;;;4991941;28;20105;-56
2023/08/19 09:47:46;;;;;;;11.50;3.28;;;31.60;99.90;;;;;;4991054;28;20113;-56
2023/08/19 09:50:12;;;;;;;13.10;8.63;;;31.60;99.90;;;;;;4992043;28;20029;-56
2023/08/19 09:52:40;;;;;;;7.80;2.30;;;31.70;99.90;;;;;;4992024;28;20030;-57
2023/08/19 09:55:06;;;;;;;11.18;3.35;;;31.80;99.90;;;;;;4991973;28;20014;-56
2023/08/19 09:57:33;;;;;;;5.28;1.95;;;31.80;99.90;;;;;;4991790;28;20030;-56
2023/08/19 10:00:00;;;;;;;5.15;2.55;;;31.90;99.90;;;;;;4994916;28;20033;-56
2023/08/19 10:02:27;;;;;;;5.90;2.33;;;32.00;99.90;;;;;;4995107;28;20074;-57
2023/08/19 10:04:53;;;;;;;7.47;3.30;;;32.00;99.90;;;;;;4995407;28;20569;-57
2023/08/19 10:07:22;;;;;;;13.90;5.80;;;32.10;99.90;;;;;;4995385;28;20034;-57
2023/08/19 10:09:50;;;;;;;4.00;1.98;;;32.20;99.90;;;;;;4995577;28;20117;-56
2023/08/19 10:12:17;;;;;;;10.73;2.35;;;32.20;99.90;;;;;;4995478;28;20033;-56
2023/08/19 10:14:45;;;;;;;5.03;2.40;;;32.30;99.90;;;;;;4995270;28;20511;-58
2023/08/19 10:17:11;;;;;;;9.40;5.25;;;32.30;99.90;;;;;;4995149;28;20029;-57
2023/08/19 10:19:48;;;;;;;3.85;1.88;;;32.40;99.90;;;;;;4994978;28;20035;-56
2023/08/19 10:22:15;;;;;;;11.80;3.50;;;32.40;99.90;;;;;;4994873;28;20448;-58
2023/08/19 10:24:42;;;;;;;8.15;1.95;;;32.50;99.90;;;;;;4995027;28;20030;-57
2023/08/19 10:27:16;;;;;;;6.28;2.38;;;32.60;99.90;;;;;;4993708;28;20430;-57
2023/08/19 10:29:45;;;;;;;5.85;2.58;;;32.60;99.90;;;;;;4993551;28;20045;-57
2023/08/19 10:32:28;;;;;;;6.65;2.40;;;32.60;99.90;;;;;;4994834;28;20030;-56
2023/08/19 10:35:09;;;;;;;5.55;3.22;;;32.70;99.90;;;;;;4994967;28;20018;-57
2023/08/19 10:37:39;;;;;;;4.05;2.38;;;32.80;99.90;;;;;;4993576;28;20491;-57
2023/08/19 10:40:15;;;;;;;7.10;2.50;;;32.80;99.90;;;;;;4994746;28;20022;-57
2023/08/19 10:42:41;;;;;;;7.22;3.10;;;32.80;99.90;;;;;;4994604;28;20044;-57
2023/08/19 10:45:17;;;;;;;6.93;2.67;;;32.90;99.90;;;;;;4993567;28;20118;-56
2023/08/19 10:47:43;;;;;;;6.10;2.05;;;32.90;99.90;;;;;;4994650;28;20517;-55
2023/08/19 10:50:10;;;;;;;5.45;2.05;;;32.90;99.90;;;;;;4993269;28;20026;-56
2023/08/19 10:53:19;;;;;;;5.47;2.72;;;33.00;99.90;;;;;;4994498;28;20026;-56
2023/08/19 10:55:55;;;;;;;10.48;3.42;;;33.00;99.90;;;;;;4974928;28;20034;-57
2023/08/19 10:58:22;;;;;;;8.35;2.65;;;33.10;99.90;;;;;;4994644;28;20029;-56
2023/08/19 11:00:49;;;;;;;9.27;3.47;;;33.20;99.90;;;;;;4994342;28;20499;-58
2023/08/19 11:03:19;;;;;;;8.27;2.28;;;33.20;99.90;;;;;;4994504;28;20031;-57
2023/08/19 11:05:51;;;;;;;9.20;2.50;;;33.30;99.90;;;;;;4994431;28;20100;-57
2023/08/19 11:08:18;;;;;;;5.07;2.20;;;33.30;99.90;;;;;;4994330;28;20046;-57
2023/08/19 11:10:47;;;;;;;4.93;1.70;;;33.30;99.90;;;;;;4993644;28;20058;-57
2023/08/19 11:13:13;;;;;;;6.90;1.90;;;33.30;99.90;;;;;;4992829;28;20023;-56
2023/08/19 11:15:43;;;;;;;4.07;1.88;;;33.40;99.90;;;;;;4992872;28;20027;-56
2023/08/19 11:18:09;;;;;;;8.43;2.08;;;33.40;99.90;;;;;;4993982;28;20039;-57
2023/08/19 11:20:36;;;;;;;9.32;2.72;;;33.40;99.90;;;;;;4993973;28;20114;-58
2023/08/19 11:23:02;;;;;;;3.95;1.90;;;33.40;99.90;;;;;;4993822;28;20030;-56
2023/08/19 11:25:38;;;;;;;7.75;2.33;;;33.30;99.90;;;;;;4994017;28;20387;-55
2023/08/19 11:28:05;;;;;;;5.40;2.17;;;33.40;99.90;;;;;;4993860;28;20141;-56
2023/08/19 11:30:31;;;;;;;5.13;1.75;;;33.40;99.90;;;;;;4993936;28;20054;-56
2023/08/19 11:32:57;;;;;;;7.85;2.30;;;33.30;99.90;;;;;;4993466;28;20053;-57
2023/08/19 11:35:39;;;;;;;8.27;2.03;;;33.30;99.90;;;;;;4993989;28;20026;-58
2023/08/19 11:38:12;;;;;;;11.80;2.17;;;33.20;99.90;;;;;;4992226;28;20391;-58
2023/08/19 11:40:38;;;;;;;8.77;1.98;;;33.20;99.90;;;;;;4992292;28;20026;-57
2023/08/19 11:43:08;;;;;;;6.15;1.95;;;33.10;99.90;;;;;;4993462;28;20038;-57
2023/08/19 11:45:38;;;;;;;7.28;2.47;;;33.10;99.90;;;;;;4992337;28;20368;-57
2023/08/19 11:48:05;;;;;;;4.88;2.42;;;33.00;99.90;;;;;;4992130;28;20023;-58
2023/08/19 11:50:34;;;;;;;;;;;33.00;99.90;;;;;;4993848;28;20101;-57
2023/08/19 11:53:02;;;;;;;7.18;3.08;;;33.00;99.90;;;;;;4993300;28;19906;-58
2023/08/19 11:55:28;;;;;;;4.45;2.00;;;33.00;99.90;;;;;;4993343;28;20026;-57
2023/08/19 11:57:54;;;;;;;3.90;2.05;;;33.00;99.90;;;;;;4993618;28;20363;-58
2023/08/19 12:00:20;;;;;;;4.80;1.83;;;33.00;99.90;;;;;;4993220;28;20022;-57
2023/08/19 12:02:46;;;;;;;5.78;3.13;;;32.90;99.90;;;;;;4992990;28;20201;-57
2023/08/19 12:05:21;;;;;;;4.80;2.33;;;32.90;99.90;;;;;;4993149;28;20076;-56
2023/08/19 12:07:47;;;;;;;17.20;3.83;;;32.90;99.90;;;;;;4993113;28;20061;-56
2023/08/19 12:10:13;;;;;;;15.43;3.80;;;32.90;99.90;;;;;;4993112;28;20046;-57
2023/08/19 12:12:38;;;;;;;22.73;8.23;;;33.00;99.90;;;;;;4991874;28;20076;-57
2023/08/19 12:15:05;;;;;;;10.85;3.92;;;32.90;99.90;;;;;;4993186;28;20023;-56
2023/08/19 12:17:31;;;;;;;18.33;6.70;;;32.90;99.90;;;;;;4993019;28;20070;-56
2023/08/19 12:19:57;;;;;;;4.88;1.98;;;32.90;99.90;;;;;;4993078;28;20295;-57
2023/08/19 12:22:22;;;;;;;15.60;4.47;;;32.90;99.90;;;;;;4992156;28;20085;-56
2023/08/19 12:24:48;;;;;;;6.38;2.42;;;32.90;99.90;;;;;;4992798;28;20018;-57
2023/08/19 12:27:14;;;;;;;8.38;3.65;;;33.00;99.90;;;;;;4992860;28;20057;-57
2023/08/19 12:29:40;;;;;;;8.70;6.63;;;33.00;99.90;;;;;;4992795;28;20015;-57
2023/08/19 12:32:06;;;;;;;5.63;4.00;;;33.00;99.90;;;;;;4992612;28;20022;-57
2023/08/19 12:34:32;;;;;;;10.93;6.75;;;33.00;99.90;;;;;;4992683;28;20379;-57
2023/08/19 12:36:58;;;;;;;19.67;14.35;;;33.10;99.90;;;;;;4991262;28;20027;-56
2023/08/19 12:39:24;;;;;;;13.18;7.70;;;33.20;99.90;;;;;;4992823;28;20034;-55
2023/08/19 12:41:49;;;;;;;4.15;1.45;;;33.20;99.90;;;;;;4992643;28;20529;-56
2023/08/19 12:44:15;;;;;;;2.67;1.95;;;33.30;99.90;;;;;;4992644;28;20045;-57
2023/08/19 12:46:43;;;;;;;7.85;3.13;;;33.30;99.90;;;;;;4992663;28;20035;-56
2023/08/19 12:49:09;;;;;;;6.05;3.90;;;33.30;99.90;;;;;;4992527;28;20097;-56